sensor_id;sensor_type;location;lat;lon;timestamp;P1;durP1;ratioP1;P2;durP2;ratioP2
31382;SDS011;18014;49.228;11.102;2022-12-15T00:00:44;44.33;;;26.92;;
31382;SDS011;18014;49.228;11.102;2022-12-15T00:03:04;44.13;;;26.30;;
31382;SDS011;18014;49.228;11.102;2022-12-15T00:05:24;46.28;;;25.85;;
31382;SDS011;18014;49.228;11.102;2022-12-15T00:07:44;45.10;;;26.48;;
31382;SDS011;18014;49.228;11.102;2022-12-15T00:10:03;42.25;;;25.70;;
31382;SDS011;18014;49.228;11.102;2022-12-15T00:12:23;40.13;;;24.77;;
31382;SDS011;18014;49.228;11.102;2022-12-15T00:14:43;45.38;;;26.77;;
31382;SDS011;18014;49.228;11.102;2022-12-15T00:17:02;42.45;;;25.73;;
31382;SDS011;18014;49.228;11.102;2022-12-15T00:19:22;44.80;;;26.13;;
31382;SDS011;18014;49.228;11.102;2022-12-15T00:21:41;42.50;;;25.75;;
31382;SDS011;18014;49.228;11.102;2022-12-15T00:24:01;46.47;;;27.27;;
31382;SDS011;18014;49.228;11.102;2022-12-15T00:26:20;49.50;;;29.17;;
31382;SDS011;18014;49.228;11.102;2022-12-15T00:28:40;47.00;;;25.95;;
31382;SDS011;18014;49.228;11.102;2022-12-15T00:30:59;44.92;;;25.92;;
31382;SDS011;18014;49.228;11.102;2022-12-15T00:33:19;44.85;;;26.67;;
31382;SDS011;18014;49.228;11.102;2022-12-15T00:35:38;49.17;;;27.35;;
31382;SDS011;18014;49.228;11.102;2022-12-15T00:38:04;42.33;;;25.83;;
31382;SDS011;18014;49.228;11.102;2022-12-15T00:40:25;44.70;;;26.55;;
31382;SDS011;18014;49.228;11.102;2022-12-15T00:42:26;47.45;;;26.85;;
31382;SDS011;18014;49.228;11.102;2022-12-15T00:44:27;46.72;;;27.88;;
31382;SDS011;18014;49.228;11.102;2022-12-15T00:46:28;47.22;;;26.45;;
31382;SDS011;18014;49.228;11.102;2022-12-15T00:48:48;45.33;;;26.63;;
31382;SDS011;18014;49.228;11.102;2022-12-15T00:50:49;42.55;;;26.80;;
31382;SDS011;18014;49.228;11.102;2022-12-15T00:52:53;45.03;;;27.77;;
31382;SDS011;18014;49.228;11.102;2022-12-15T00:55:13;48.15;;;28.27;;
31382;SDS011;18014;49.228;11.102;2022-12-15T00:57:32;47.05;;;28.42;;
31382;SDS011;18014;49.228;11.102;2022-12-15T00:59:52;48.55;;;28.05;;
31382;SDS011;18014;49.228;11.102;2022-12-15T01:02:12;50.08;;;28.42;;
31382;SDS011;18014;49.228;11.102;2022-12-15T01:04:31;48.15;;;28.30;;
31382;SDS011;18014;49.228;11.102;2022-12-15T01:06:51;43.00;;;24.63;;
31382;SDS011;18014;49.228;11.102;2022-12-15T01:09:11;45.42;;;26.38;;
31382;SDS011;18014;49.228;11.102;2022-12-15T01:11:32;44.00;;;26.55;;
31382;SDS011;18014;49.228;11.102;2022-12-15T01:13:51;49.30;;;27.23;;
31382;SDS011;18014;49.228;11.102;2022-12-15T01:16:11;45.33;;;27.02;;
31382;SDS011;18014;49.228;11.102;2022-12-15T01:18:32;43.80;;;26.23;;
31382;SDS011;18014;49.228;11.102;2022-12-15T01:20:58;47.90;;;26.17;;
31382;SDS011;18014;49.228;11.102;2022-12-15T01:23:01;43.08;;;26.20;;
31382;SDS011;18014;49.228;11.102;2022-12-15T01:25:03;42.17;;;26.10;;
31382;SDS011;18014;49.228;11.102;2022-12-15T01:27:05;48.50;;;27.83;;
31382;SDS011;18014;49.228;11.102;2022-12-15T01:29:06;46.92;;;26.98;;
31382;SDS011;18014;49.228;11.102;2022-12-15T01:31:08;46.25;;;27.23;;
31382;SDS011;18014;49.228;11.102;2022-12-15T01:33:10;45.03;;;26.58;;
31382;SDS011;18014;49.228;11.102;2022-12-15T01:35:12;46.58;;;27.05;;
31382;SDS011;18014;49.228;11.102;2022-12-15T01:37:13;43.03;;;25.83;;
31382;SDS011;18014;49.228;11.102;2022-12-15T01:39:14;43.55;;;25.95;;
31382;SDS011;18014;49.228;11.102;2022-12-15T01:41:15;48.42;;;29.30;;
31382;SDS011;18014;49.228;11.102;2022-12-15T01:43:22;46.75;;;27.23;;
31382;SDS011;18014;49.228;11.102;2022-12-15T01:47:26;47.25;;;27.10;;
31382;SDS011;18014;49.228;11.102;2022-12-15T01:49:28;46.70;;;26.98;;
31382;SDS011;18014;49.228;11.102;2022-12-15T01:51:31;49.40;;;28.10;;
31382;SDS011;18014;49.228;11.102;2022-12-15T01:53:40;44.50;;;26.20;;
31382;SDS011;18014;49.228;11.102;2022-12-15T01:55:47;43.63;;;25.17;;
31382;SDS011;18014;49.228;11.102;2022-12-15T01:57:48;47.08;;;27.42;;
31382;SDS011;18014;49.228;11.102;2022-12-15T01:59:53;44.58;;;26.10;;
31382;SDS011;18014;49.228;11.102;2022-12-15T02:03:59;48.00;;;26.83;;
31382;SDS011;18014;49.228;11.102;2022-12-15T02:06:01;46.40;;;27.83;;
31382;SDS011;18014;49.228;11.102;2022-12-15T02:08:03;52.30;;;30.00;;
31382;SDS011;18014;49.228;11.102;2022-12-15T02:10:04;49.83;;;28.00;;
31382;SDS011;18014;49.228;11.102;2022-12-15T02:17:00;45.97;;;27.58;;
31382;SDS011;18014;49.228;11.102;2022-12-15T02:19:13;46.50;;;26.52;;
31382;SDS011;18014;49.228;11.102;2022-12-15T02:21:41;44.22;;;26.60;;
31382;SDS011;18014;49.228;11.102;2022-12-15T02:26:13;45.70;;;26.83;;
31382;SDS011;18014;49.228;11.102;2022-12-15T02:33:25;49.20;;;27.23;;
31382;SDS011;18014;49.228;11.102;2022-12-15T02:35:32;51.92;;;29.10;;
31382;SDS011;18014;49.228;11.102;2022-12-15T02:37:36;48.35;;;27.00;;
31382;SDS011;18014;49.228;11.102;2022-12-15T02:39:39;50.42;;;30.10;;
31382;SDS011;18014;49.228;11.102;2022-12-15T02:41:41;51.67;;;29.38;;
31382;SDS011;18014;49.228;11.102;2022-12-15T02:43:44;48.47;;;27.58;;
31382;SDS011;18014;49.228;11.102;2022-12-15T02:45:51;45.97;;;27.58;;
31382;SDS011;18014;49.228;11.102;2022-12-15T02:52:41;46.92;;;26.52;;
31382;SDS011;18014;49.228;11.102;2022-12-15T02:57:19;44.25;;;27.10;;
31382;SDS011;18014;49.228;11.102;2022-12-15T02:59:36;50.17;;;28.52;;
31382;SDS011;18014;49.228;11.102;2022-12-15T03:01:48;47.47;;;26.80;;
31382;SDS011;18014;49.228;11.102;2022-12-15T03:03:54;46.78;;;27.92;;
31382;SDS011;18014;49.228;11.102;2022-12-15T03:07:59;51.30;;;27.73;;
31382;SDS011;18014;49.228;11.102;2022-12-15T03:10:01;47.70;;;25.65;;
31382;SDS011;18014;49.228;11.102;2022-12-15T03:12:04;49.95;;;29.65;;
31382;SDS011;18014;49.228;11.102;2022-12-15T03:14:05;48.75;;;29.33;;
31382;SDS011;18014;49.228;11.102;2022-12-15T03:16:06;45.22;;;27.35;;
31382;SDS011;18014;49.228;11.102;2022-12-15T03:18:07;49.80;;;28.65;;
31382;SDS011;18014;49.228;11.102;2022-12-15T03:20:08;49.92;;;29.10;;
31382;SDS011;18014;49.228;11.102;2022-12-15T03:22:10;47.15;;;27.75;;
31382;SDS011;18014;49.228;11.102;2022-12-15T03:24:11;47.38;;;27.52;;
31382;SDS011;18014;49.228;11.102;2022-12-15T03:26:12;44.80;;;27.30;;
31382;SDS011;18014;49.228;11.102;2022-12-15T03:28:13;44.05;;;26.25;;
31382;SDS011;18014;49.228;11.102;2022-12-15T03:30:14;47.15;;;28.55;;
31382;SDS011;18014;49.228;11.102;2022-12-15T03:32:15;46.17;;;27.92;;
31382;SDS011;18014;49.228;11.102;2022-12-15T03:34:16;50.67;;;28.35;;
31382;SDS011;18014;49.228;11.102;2022-12-15T03:36:17;46.03;;;26.58;;
31382;SDS011;18014;49.228;11.102;2022-12-15T03:38:18;46.15;;;27.75;;
31382;SDS011;18014;49.228;11.102;2022-12-15T03:40:19;48.40;;;28.98;;
31382;SDS011;18014;49.228;11.102;2022-12-15T03:42:21;49.90;;;27.23;;
31382;SDS011;18014;49.228;11.102;2022-12-15T03:44:40;48.55;;;28.13;;
31382;SDS011;18014;49.228;11.102;2022-12-15T03:46:41;51.20;;;28.17;;
31382;SDS011;18014;49.228;11.102;2022-12-15T03:48:42;45.28;;;27.05;;
31382;SDS011;18014;49.228;11.102;2022-12-15T03:50:43;48.15;;;28.42;;
31382;SDS011;18014;49.228;11.102;2022-12-15T03:52:53;47.63;;;27.50;;
31382;SDS011;18014;49.228;11.102;2022-12-15T03:54:56;46.40;;;27.05;;
31382;SDS011;18014;49.228;11.102;2022-12-15T03:56:57;44.65;;;27.50;;
31382;SDS011;18014;49.228;11.102;2022-12-15T03:58:58;45.22;;;26.00;;
31382;SDS011;18014;49.228;11.102;2022-12-15T04:01:08;45.35;;;27.38;;
31382;SDS011;18014;49.228;11.102;2022-12-15T04:03:17;50.65;;;27.80;;
31382;SDS011;18014;49.228;11.102;2022-12-15T04:05:20;46.15;;;27.45;;
31382;SDS011;18014;49.228;11.102;2022-12-15T04:07:28;51.42;;;29.77;;
31382;SDS011;18014;49.228;11.102;2022-12-15T04:09:29;51.25;;;29.55;;
31382;SDS011;18014;49.228;11.102;2022-12-15T04:11:30;50.50;;;29.88;;
31382;SDS011;18014;49.228;11.102;2022-12-15T04:13:31;49.53;;;28.40;;
31382;SDS011;18014;49.228;11.102;2022-12-15T04:15:33;45.65;;;27.27;;
31382;SDS011;18014;49.228;11.102;2022-12-15T04:17:35;50.92;;;29.80;;
31382;SDS011;18014;49.228;11.102;2022-12-15T04:19:36;47.00;;;27.55;;
31382;SDS011;18014;49.228;11.102;2022-12-15T04:22:00;48.47;;;27.92;;
31382;SDS011;18014;49.228;11.102;2022-12-15T04:24:02;48.30;;;27.30;;
31382;SDS011;18014;49.228;11.102;2022-12-15T04:26:22;48.47;;;28.00;;
31382;SDS011;18014;49.228;11.102;2022-12-15T04:28:42;50.40;;;28.35;;
31382;SDS011;18014;49.228;11.102;2022-12-15T04:31:12;50.30;;;28.42;;
31382;SDS011;18014;49.228;11.102;2022-12-15T04:33:34;50.45;;;27.45;;
31382;SDS011;18014;49.228;11.102;2022-12-15T04:35:56;52.03;;;29.17;;
31382;SDS011;18014;49.228;11.102;2022-12-15T04:38:16;47.25;;;27.45;;
31382;SDS011;18014;49.228;11.102;2022-12-15T04:40:36;50.17;;;28.67;;
31382;SDS011;18014;49.228;11.102;2022-12-15T04:42:56;53.25;;;30.77;;
31382;SDS011;18014;49.228;11.102;2022-12-15T04:45:16;54.80;;;31.80;;
31382;SDS011;18014;49.228;11.102;2022-12-15T04:47:38;54.97;;;30.58;;
31382;SDS011;18014;49.228;11.102;2022-12-15T04:49:57;59.15;;;31.60;;
31382;SDS011;18014;49.228;11.102;2022-12-15T04:52:17;50.28;;;29.52;;
31382;SDS011;18014;49.228;11.102;2022-12-15T04:54:36;50.30;;;28.27;;
31382;SDS011;18014;49.228;11.102;2022-12-15T04:56:56;48.92;;;27.67;;
31382;SDS011;18014;49.228;11.102;2022-12-15T04:59:15;47.63;;;28.42;;
31382;SDS011;18014;49.228;11.102;2022-12-15T05:01:35;47.75;;;28.65;;
31382;SDS011;18014;49.228;11.102;2022-12-15T05:03:54;53.75;;;28.17;;
31382;SDS011;18014;49.228;11.102;2022-12-15T05:06:14;53.42;;;28.88;;
31382;SDS011;18014;49.228;11.102;2022-12-15T05:08:34;48.55;;;28.83;;
31382;SDS011;18014;49.228;11.102;2022-12-15T05:10:53;52.33;;;29.30;;
31382;SDS011;18014;49.228;11.102;2022-12-15T05:13:13;49.22;;;28.52;;
31382;SDS011;18014;49.228;11.102;2022-12-15T05:15:32;53.65;;;30.00;;
31382;SDS011;18014;49.228;11.102;2022-12-15T05:17:52;51.40;;;29.60;;
31382;SDS011;18014;49.228;11.102;2022-12-15T05:20:12;49.90;;;27.77;;
31382;SDS011;18014;49.228;11.102;2022-12-15T05:22:32;51.20;;;30.40;;
31382;SDS011;18014;49.228;11.102;2022-12-15T05:24:52;46.67;;;28.38;;
31382;SDS011;18014;49.228;11.102;2022-12-15T05:27:11;49.25;;;27.67;;
31382;SDS011;18014;49.228;11.102;2022-12-15T05:29:31;55.47;;;31.35;;
31382;SDS011;18014;49.228;11.102;2022-12-15T05:31:50;47.53;;;27.92;;
31382;SDS011;18014;49.228;11.102;2022-12-15T05:33:52;48.80;;;28.85;;
31382;SDS011;18014;49.228;11.102;2022-12-15T05:35:57;51.92;;;28.25;;
31382;SDS011;18014;49.228;11.102;2022-12-15T05:37:58;50.00;;;28.80;;
31382;SDS011;18014;49.228;11.102;2022-12-15T05:39:59;56.78;;;30.70;;
31382;SDS011;18014;49.228;11.102;2022-12-15T05:42:00;51.13;;;30.65;;
31382;SDS011;18014;49.228;11.102;2022-12-15T05:44:01;53.45;;;32.22;;
31382;SDS011;18014;49.228;11.102;2022-12-15T05:46:03;52.10;;;30.80;;
31382;SDS011;18014;49.228;11.102;2022-12-15T05:48:04;54.55;;;31.23;;
31382;SDS011;18014;49.228;11.102;2022-12-15T05:50:05;51.65;;;29.73;;
31382;SDS011;18014;49.228;11.102;2022-12-15T05:52:07;52.08;;;29.52;;
31382;SDS011;18014;49.228;11.102;2022-12-15T05:54:08;48.08;;;28.95;;
31382;SDS011;18014;49.228;11.102;2022-12-15T05:56:11;54.00;;;29.95;;
31382;SDS011;18014;49.228;11.102;2022-12-15T06:00:13;48.03;;;27.77;;
31382;SDS011;18014;49.228;11.102;2022-12-15T06:02:15;51.92;;;28.10;;
31382;SDS011;18014;49.228;11.102;2022-12-15T06:04:16;49.05;;;28.20;;
31382;SDS011;18014;49.228;11.102;2022-12-15T06:06:17;50.38;;;28.80;;
31382;SDS011;18014;49.228;11.102;2022-12-15T06:08:18;53.78;;;31.38;;
31382;SDS011;18014;49.228;11.102;2022-12-15T06:10:19;53.10;;;29.92;;
31382;SDS011;18014;49.228;11.102;2022-12-15T06:12:20;52.40;;;29.67;;
31382;SDS011;18014;49.228;11.102;2022-12-15T06:14:21;53.20;;;29.67;;
31382;SDS011;18014;49.228;11.102;2022-12-15T06:16:22;53.08;;;27.65;;
31382;SDS011;18014;49.228;11.102;2022-12-15T06:18:26;54.35;;;30.20;;
31382;SDS011;18014;49.228;11.102;2022-12-15T06:20:29;50.70;;;29.92;;
31382;SDS011;18014;49.228;11.102;2022-12-15T06:22:30;50.25;;;27.95;;
31382;SDS011;18014;49.228;11.102;2022-12-15T06:24:31;54.58;;;28.13;;
31382;SDS011;18014;49.228;11.102;2022-12-15T06:26:33;52.63;;;30.30;;
31382;SDS011;18014;49.228;11.102;2022-12-15T06:28:36;55.95;;;29.45;;
31382;SDS011;18014;49.228;11.102;2022-12-15T06:30:37;50.35;;;29.08;;
31382;SDS011;18014;49.228;11.102;2022-12-15T06:32:38;56.47;;;31.63;;
31382;SDS011;18014;49.228;11.102;2022-12-15T06:34:39;57.13;;;31.75;;
31382;SDS011;18014;49.228;11.102;2022-12-15T06:36:40;59.28;;;32.50;;
31382;SDS011;18014;49.228;11.102;2022-12-15T06:38:41;55.75;;;32.15;;
31382;SDS011;18014;49.228;11.102;2022-12-15T06:40:43;58.20;;;31.25;;
31382;SDS011;18014;49.228;11.102;2022-12-15T06:42:44;54.88;;;30.45;;
31382;SDS011;18014;49.228;11.102;2022-12-15T06:44:45;48.67;;;28.02;;
31382;SDS011;18014;49.228;11.102;2022-12-15T06:46:46;54.72;;;30.77;;
31382;SDS011;18014;49.228;11.102;2022-12-15T06:48:47;55.35;;;31.25;;
31382;SDS011;18014;49.228;11.102;2022-12-15T06:50:48;52.67;;;29.60;;
31382;SDS011;18014;49.228;11.102;2022-12-15T06:52:50;53.08;;;30.00;;
31382;SDS011;18014;49.228;11.102;2022-12-15T06:54:51;56.75;;;29.27;;
31382;SDS011;18014;49.228;11.102;2022-12-15T06:56:52;53.55;;;29.58;;
31382;SDS011;18014;49.228;11.102;2022-12-15T06:58:53;53.33;;;31.45;;
31382;SDS011;18014;49.228;11.102;2022-12-15T07:00:54;48.08;;;28.17;;
31382;SDS011;18014;49.228;11.102;2022-12-15T07:02:55;52.35;;;30.15;;
31382;SDS011;18014;49.228;11.102;2022-12-15T07:04:57;51.80;;;29.13;;
31382;SDS011;18014;49.228;11.102;2022-12-15T07:06:58;52.33;;;30.27;;
31382;SDS011;18014;49.228;11.102;2022-12-15T07:08:59;49.92;;;28.38;;
31382;SDS011;18014;49.228;11.102;2022-12-15T07:11:03;53.30;;;29.23;;
31382;SDS011;18014;49.228;11.102;2022-12-15T07:13:05;51.08;;;29.95;;
31382;SDS011;18014;49.228;11.102;2022-12-15T07:15:12;50.55;;;29.13;;
31382;SDS011;18014;49.228;11.102;2022-12-15T07:17:13;52.63;;;28.83;;
31382;SDS011;18014;49.228;11.102;2022-12-15T07:19:14;58.85;;;30.38;;
31382;SDS011;18014;49.228;11.102;2022-12-15T07:21:16;54.97;;;29.70;;
31382;SDS011;18014;49.228;11.102;2022-12-15T07:23:17;57.80;;;30.73;;
31382;SDS011;18014;49.228;11.102;2022-12-15T07:25:18;54.05;;;30.10;;
31382;SDS011;18014;49.228;11.102;2022-12-15T07:27:19;55.80;;;29.25;;
31382;SDS011;18014;49.228;11.102;2022-12-15T07:29:20;50.85;;;29.20;;
31382;SDS011;18014;49.228;11.102;2022-12-15T07:31:21;53.35;;;29.45;;
31382;SDS011;18014;49.228;11.102;2022-12-15T07:33:22;56.10;;;30.60;;
31382;SDS011;18014;49.228;11.102;2022-12-15T07:35:25;52.53;;;29.10;;
31382;SDS011;18014;49.228;11.102;2022-12-15T07:37:28;52.53;;;29.00;;
31382;SDS011;18014;49.228;11.102;2022-12-15T07:39:29;53.88;;;30.02;;
31382;SDS011;18014;49.228;11.102;2022-12-15T07:41:30;63.55;;;30.20;;
31382;SDS011;18014;49.228;11.102;2022-12-15T07:43:50;55.30;;;32.65;;
31382;SDS011;18014;49.228;11.102;2022-12-15T07:45:52;56.63;;;30.67;;
31382;SDS011;18014;49.228;11.102;2022-12-15T07:47:54;50.58;;;29.30;;
31382;SDS011;18014;49.228;11.102;2022-12-15T07:49:54;53.38;;;29.83;;
31382;SDS011;18014;49.228;11.102;2022-12-15T07:51:55;53.40;;;32.08;;
31382;SDS011;18014;49.228;11.102;2022-12-15T07:53:57;59.35;;;34.60;;
31382;SDS011;18014;49.228;11.102;2022-12-15T07:55:59;59.80;;;33.95;;
31382;SDS011;18014;49.228;11.102;2022-12-15T07:58:00;39.47;;;23.55;;
31382;SDS011;18014;49.228;11.102;2022-12-15T08:00:01;50.50;;;30.45;;
31382;SDS011;18014;49.228;11.102;2022-12-15T08:02:04;55.10;;;30.77;;
31382;SDS011;18014;49.228;11.102;2022-12-15T08:04:05;51.50;;;28.63;;
31382;SDS011;18014;49.228;11.102;2022-12-15T08:06:10;48.78;;;29.15;;
31382;SDS011;18014;49.228;11.102;2022-12-15T08:08:12;62.95;;;34.47;;
31382;SDS011;18014;49.228;11.102;2022-12-15T08:10:13;58.72;;;36.17;;
31382;SDS011;18014;49.228;11.102;2022-12-15T08:12:14;69.30;;;38.45;;
31382;SDS011;18014;49.228;11.102;2022-12-15T08:14:16;56.85;;;34.17;;
31382;SDS011;18014;49.228;11.102;2022-12-15T08:16:18;52.42;;;29.38;;
31382;SDS011;18014;49.228;11.102;2022-12-15T08:18:19;51.00;;;29.60;;
31382;SDS011;18014;49.228;11.102;2022-12-15T08:20:20;49.47;;;28.58;;
31382;SDS011;18014;49.228;11.102;2022-12-15T08:22:21;49.47;;;28.10;;
31382;SDS011;18014;49.228;11.102;2022-12-15T08:24:22;48.13;;;27.63;;
31382;SDS011;18014;49.228;11.102;2022-12-15T08:26:23;49.92;;;29.17;;
31382;SDS011;18014;49.228;11.102;2022-12-15T08:28:24;52.88;;;29.95;;
31382;SDS011;18014;49.228;11.102;2022-12-15T08:30:25;50.92;;;27.90;;
31382;SDS011;18014;49.228;11.102;2022-12-15T08:32:26;54.58;;;31.27;;
31382;SDS011;18014;49.228;11.102;2022-12-15T08:34:27;49.50;;;30.08;;
31382;SDS011;18014;49.228;11.102;2022-12-15T08:36:28;48.97;;;27.63;;
31382;SDS011;18014;49.228;11.102;2022-12-15T08:38:30;51.08;;;29.67;;
31382;SDS011;18014;49.228;11.102;2022-12-15T08:40:32;53.50;;;29.55;;
31382;SDS011;18014;49.228;11.102;2022-12-15T08:42:33;52.42;;;30.50;;
31382;SDS011;18014;49.228;11.102;2022-12-15T08:44:35;54.33;;;30.08;;
31382;SDS011;18014;49.228;11.102;2022-12-15T08:46:36;49.72;;;29.10;;
31382;SDS011;18014;49.228;11.102;2022-12-15T08:48:37;51.67;;;29.92;;
31382;SDS011;18014;49.228;11.102;2022-12-15T08:50:41;55.50;;;30.50;;
31382;SDS011;18014;49.228;11.102;2022-12-15T08:52:45;51.10;;;28.83;;
31382;SDS011;18014;49.228;11.102;2022-12-15T08:54:46;49.67;;;28.75;;
31382;SDS011;18014;49.228;11.102;2022-12-15T08:56:48;53.95;;;29.90;;
31382;SDS011;18014;49.228;11.102;2022-12-15T08:58:49;52.55;;;30.80;;
31382;SDS011;18014;49.228;11.102;2022-12-15T09:00:58;50.83;;;30.08;;
31382;SDS011;18014;49.228;11.102;2022-12-15T09:03:00;55.60;;;30.10;;
31382;SDS011;18014;49.228;11.102;2022-12-15T09:05:01;51.85;;;30.80;;
31382;SDS011;18014;49.228;11.102;2022-12-15T09:07:05;55.25;;;29.83;;
31382;SDS011;18014;49.228;11.102;2022-12-15T09:09:07;59.03;;;29.05;;
31382;SDS011;18014;49.228;11.102;2022-12-15T09:11:10;50.22;;;28.75;;
31382;SDS011;18014;49.228;11.102;2022-12-15T09:13:11;50.40;;;28.90;;
31382;SDS011;18014;49.228;11.102;2022-12-15T09:15:12;52.13;;;30.05;;
31382;SDS011;18014;49.228;11.102;2022-12-15T09:17:13;56.92;;;30.63;;
31382;SDS011;18014;49.228;11.102;2022-12-15T09:19:14;52.33;;;31.42;;
31382;SDS011;18014;49.228;11.102;2022-12-15T09:21:15;55.47;;;31.58;;
31382;SDS011;18014;49.228;11.102;2022-12-15T09:23:17;52.87;;;32.13;;
31382;SDS011;18014;49.228;11.102;2022-12-15T09:25:19;52.60;;;30.77;;
31382;SDS011;18014;49.228;11.102;2022-12-15T09:27:20;54.83;;;31.55;;
31382;SDS011;18014;49.228;11.102;2022-12-15T09:29:20;51.63;;;30.45;;
31382;SDS011;18014;49.228;11.102;2022-12-15T09:31:26;56.92;;;32.50;;
31382;SDS011;18014;49.228;11.102;2022-12-15T09:33:28;56.70;;;31.92;;
31382;SDS011;18014;49.228;11.102;2022-12-15T09:35:29;61.28;;;33.95;;
31382;SDS011;18014;49.228;11.102;2022-12-15T09:37:30;54.40;;;32.13;;
31382;SDS011;18014;49.228;11.102;2022-12-15T09:39:31;55.90;;;30.08;;
31382;SDS011;18014;49.228;11.102;2022-12-15T09:41:33;58.20;;;32.45;;
31382;SDS011;18014;49.228;11.102;2022-12-15T09:43:35;58.00;;;32.72;;
31382;SDS011;18014;49.228;11.102;2022-12-15T09:45:40;57.50;;;33.53;;
31382;SDS011;18014;49.228;11.102;2022-12-15T09:50:00;55.78;;;31.25;;
31382;SDS011;18014;49.228;11.102;2022-12-15T09:52:05;54.90;;;32.70;;
31382;SDS011;18014;49.228;11.102;2022-12-15T09:54:11;56.65;;;32.83;;
31382;SDS011;18014;49.228;11.102;2022-12-15T09:56:14;59.47;;;32.47;;
31382;SDS011;18014;49.228;11.102;2022-12-15T09:59:11;57.63;;;32.33;;
31382;SDS011;18014;49.228;11.102;2022-12-15T10:00:45;58.75;;;32.20;;
31382;SDS011;18014;49.228;11.102;2022-12-15T10:03:09;58.25;;;32.75;;
31382;SDS011;18014;49.228;11.102;2022-12-15T10:07:51;52.28;;;31.50;;
31382;SDS011;18014;49.228;11.102;2022-12-15T10:09:52;51.97;;;29.73;;
31382;SDS011;18014;49.228;11.102;2022-12-15T10:14:20;59.05;;;32.92;;
31382;SDS011;18014;49.228;11.102;2022-12-15T10:19:30;55.78;;;32.67;;
31382;SDS011;18014;49.228;11.102;2022-12-15T10:21:16;53.30;;;32.28;;
31382;SDS011;18014;49.228;11.102;2022-12-15T10:23:17;56.30;;;33.15;;
31382;SDS011;18014;49.228;11.102;2022-12-15T10:25:19;57.85;;;32.75;;
31382;SDS011;18014;49.228;11.102;2022-12-15T10:29:43;53.38;;;31.70;;
31382;SDS011;18014;49.228;11.102;2022-12-15T10:31:52;55.55;;;32.20;;
31382;SDS011;18014;49.228;11.102;2022-12-15T10:34:09;54.30;;;30.83;;
31382;SDS011;18014;49.228;11.102;2022-12-15T10:36:22;57.92;;;30.58;;
31382;SDS011;18014;49.228;11.102;2022-12-15T10:38:34;58.22;;;31.30;;
31382;SDS011;18014;49.228;11.102;2022-12-15T10:42:44;48.08;;;27.23;;
31382;SDS011;18014;49.228;11.102;2022-12-15T10:44:51;51.90;;;29.48;;
31382;SDS011;18014;49.228;11.102;2022-12-15T10:46:54;50.25;;;29.98;;
31382;SDS011;18014;49.228;11.102;2022-12-15T10:54:12;52.92;;;28.85;;
31382;SDS011;18014;49.228;11.102;2022-12-15T10:56:03;49.80;;;28.30;;
31382;SDS011;18014;49.228;11.102;2022-12-15T10:58:15;50.92;;;30.00;;
31382;SDS011;18014;49.228;11.102;2022-12-15T11:02:27;49.72;;;28.08;;
31382;SDS011;18014;49.228;11.102;2022-12-15T11:04:33;52.53;;;30.35;;
31382;SDS011;18014;49.228;11.102;2022-12-15T11:06:34;53.22;;;29.90;;
31382;SDS011;18014;49.228;11.102;2022-12-15T11:08:40;49.35;;;27.73;;
31382;SDS011;18014;49.228;11.102;2022-12-15T11:10:52;47.53;;;26.55;;
31382;SDS011;18014;49.228;11.102;2022-12-15T11:13:15;49.58;;;30.25;;
31382;SDS011;18014;49.228;11.102;2022-12-15T11:17:37;52.47;;;31.80;;
31382;SDS011;18014;49.228;11.102;2022-12-15T11:19:57;58.00;;;32.50;;
31382;SDS011;18014;49.228;11.102;2022-12-15T11:22:11;47.95;;;27.60;;
31382;SDS011;18014;49.228;11.102;2022-12-15T11:24:46;49.03;;;28.48;;
31382;SDS011;18014;49.228;11.102;2022-12-15T11:29:26;46.88;;;28.40;;
31382;SDS011;18014;49.228;11.102;2022-12-15T11:31:36;46.95;;;26.80;;
31382;SDS011;18014;49.228;11.102;2022-12-15T11:33:39;49.30;;;30.02;;
31382;SDS011;18014;49.228;11.102;2022-12-15T11:38:04;42.72;;;26.58;;
31382;SDS011;18014;49.228;11.102;2022-12-15T11:40:40;49.20;;;28.98;;
31382;SDS011;18014;49.228;11.102;2022-12-15T11:47:11;51.65;;;30.00;;
31382;SDS011;18014;49.228;11.102;2022-12-15T11:50:30;52.78;;;31.00;;
31382;SDS011;18014;49.228;11.102;2022-12-15T11:56:41;49.40;;;28.15;;
31382;SDS011;18014;49.228;11.102;2022-12-15T12:01:37;52.42;;;30.77;;
31382;SDS011;18014;49.228;11.102;2022-12-15T12:04:19;49.92;;;30.20;;
31382;SDS011;18014;49.228;11.102;2022-12-15T12:06:29;46.47;;;27.63;;
31382;SDS011;18014;49.228;11.102;2022-12-15T12:09:11;46.78;;;27.85;;
31382;SDS011;18014;49.228;11.102;2022-12-15T12:11:15;50.33;;;29.15;;
31382;SDS011;18014;49.228;11.102;2022-12-15T12:15:47;57.00;;;34.30;;
31382;SDS011;18014;49.228;11.102;2022-12-15T12:18:00;51.50;;;30.30;;
31382;SDS011;18014;49.228;11.102;2022-12-15T12:20:11;50.45;;;28.80;;
31382;SDS011;18014;49.228;11.102;2022-12-15T12:22:39;54.17;;;31.65;;
31382;SDS011;18014;49.228;11.102;2022-12-15T12:24:43;53.08;;;29.33;;
31382;SDS011;18014;49.228;11.102;2022-12-15T12:31:26;54.95;;;32.38;;
31382;SDS011;18014;49.228;11.102;2022-12-15T12:33:37;49.13;;;28.90;;
31382;SDS011;18014;49.228;11.102;2022-12-15T12:35:46;51.08;;;29.88;;
31382;SDS011;18014;49.228;11.102;2022-12-15T12:37:59;49.40;;;28.25;;
31382;SDS011;18014;49.228;11.102;2022-12-15T12:40:04;48.30;;;28.45;;
31382;SDS011;18014;49.228;11.102;2022-12-15T12:44:29;47.70;;;27.90;;
31382;SDS011;18014;49.228;11.102;2022-12-15T12:46:33;49.17;;;29.52;;
31382;SDS011;18014;49.228;11.102;2022-12-15T12:50:43;54.30;;;31.98;;
31382;SDS011;18014;49.228;11.102;2022-12-15T12:52:49;58.13;;;33.00;;
31382;SDS011;18014;49.228;11.102;2022-12-15T12:54:54;56.17;;;34.67;;
31382;SDS011;18014;49.228;11.102;2022-12-15T12:56:56;59.42;;;33.55;;
31382;SDS011;18014;49.228;11.102;2022-12-15T12:58:57;54.97;;;35.33;;
31382;SDS011;18014;49.228;11.102;2022-12-15T13:01:05;56.47;;;33.42;;
31382;SDS011;18014;49.228;11.102;2022-12-15T13:03:18;53.53;;;31.48;;
31382;SDS011;18014;49.228;11.102;2022-12-15T13:05:27;88.18;;;52.00;;
31382;SDS011;18014;49.228;11.102;2022-12-15T13:07:33;63.17;;;38.55;;
31382;SDS011;18014;49.228;11.102;2022-12-15T13:09:38;53.20;;;31.90;;
31382;SDS011;18014;49.228;11.102;2022-12-15T13:13:52;45.67;;;28.45;;
31382;SDS011;18014;49.228;11.102;2022-12-15T13:15:57;47.55;;;28.08;;
31382;SDS011;18014;49.228;11.102;2022-12-15T13:18:17;45.67;;;28.02;;
31382;SDS011;18014;49.228;11.102;2022-12-15T13:20:28;44.65;;;26.83;;
31382;SDS011;18014;49.228;11.102;2022-12-15T13:22:37;41.50;;;25.02;;
31382;SDS011;18014;49.228;11.102;2022-12-15T13:24:46;46.30;;;27.65;;
31382;SDS011;18014;49.228;11.102;2022-12-15T13:26:49;44.60;;;26.98;;
31382;SDS011;18014;49.228;11.102;2022-12-15T13:28:50;44.55;;;27.10;;
31382;SDS011;18014;49.228;11.102;2022-12-15T13:33:20;43.63;;;26.58;;
31382;SDS011;18014;49.228;11.102;2022-12-15T13:35:24;40.30;;;24.80;;
31382;SDS011;18014;49.228;11.102;2022-12-15T13:39:55;56.33;;;29.42;;